Time;durP1;ratioP1;P1;durP2;ratioP2;P2;SDS_P1;SDS_P2;PMS_P1;PMS_P2;Temp;Humidity;BMP_temperature;BMP_pressure;BME280_temperature;BME280_humidity;BME280_pressure;Samples;Min_cycle;Max_cycle;Signal;HPM_P1;HPM_P2
2022/06/21 00:02:17;;;;;;;2.10;1.80;;;;;;;23.22;52.56;95483.97;5042272;28;20233;-83
2022/06/21 00:04:44;;;;;;;2.90;1.90;;;;;;;23.27;52.29;95486.63;5044756;28;20198;-83
2022/06/21 00:07:16;;;;;;;2.20;2.03;;;;;;;23.12;52.69;95489.19;5042987;28;20206;-82
2022/06/21 00:09:42;;;;;;;2.38;2.17;;;;;;;23.01;53.05;95491.78;5043506;28;20775;-81
2022/06/21 00:12:13;;;;;;;2.00;1.90;;;;;;;22.97;53.26;95495.16;5041881;28;20260;-83
2022/06/21 00:14:40;;;;;;;2.30;1.85;;;;;;;23.01;53.15;95493.63;5043829;28;20213;-81
2022/06/21 00:17:06;;;;;;;2.47;2.10;;;;;;;22.87;53.32;95497.75;5043783;28;20200;-81
2022/06/21 00:19:33;;;;;;;2.80;2.42;;;;;;;22.76;53.76;95491.63;5043162;28;20226;-82
2022/06/21 00:21:59;;;;;;;2.70;2.13;;;;;;;22.57;54.29;95491.25;5042142;28;20670;-81
2022/06/21 00:24:26;;;;;;;2.08;1.90;;;;;;;22.36;54.63;95492.97;5043989;28;20190;-81
2022/06/21 00:26:52;;;;;;;2.30;1.88;;;;;;;22.28;54.92;95490.03;5045472;28;20206;-82
2022/06/21 00:29:20;;;;;;;1.80;1.70;;;;;;;22.13;55.54;95501.19;5045589;28;20206;-80
2022/06/21 00:31:49;;;;;;;1.80;1.70;;;;;;;22.17;54.95;95504.91;5044602;28;20203;-81
2022/06/21 00:34:18;;;;;;;1.80;1.70;;;;;;;22.19;54.82;95507.28;5045495;28;20221;-82
2022/06/21 00:36:46;;;;;;;3.47;1.55;;;;;;;22.21;54.14;95511.22;5046449;28;20206;-80
2022/06/21 00:39:15;;;;;;;1.75;1.60;;;;;;;22.17;54.61;95512.75;5047108;28;20240;-82
2022/06/21 00:41:45;;;;;;;1.70;1.60;;;;;;;22.20;55.23;95514.09;5045211;28;20293;-84
2022/06/21 00:44:16;;;;;;;1.48;1.38;;;;;;;22.27;54.57;95509.44;5044790;28;20230;-81
2022/06/21 00:46:47;;;;;;;3.08;1.60;;;;;;;22.14;54.50;95518.50;5046782;28;20198;-80
2022/06/21 00:49:21;;;;;;;2.15;1.33;;;;;;;22.00;54.13;95518.13;5047181;28;20221;-80
2022/06/21 00:51:51;;;;;;;1.60;1.48;;;;;;;21.85;53.75;95506.69;5045964;28;20225;-81
2022/06/21 00:54:23;;;;;;;1.77;1.23;;;;;;;21.85;53.87;95510.13;5046500;28;20572;-83
2022/06/21 00:56:56;;;;;;;2.38;1.30;;;;;;;21.77;53.76;95513.19;5046873;28;20198;-81
2022/06/21 00:59:25;;;;;;;2.30;1.30;;;;;;;21.78;53.40;95517.38;5045559;28;20292;-81
2022/06/21 01:01:56;;;;;;;1.38;1.27;;;;;;;21.84;53.37;95508.53;5044467;28;20240;-81
2022/06/21 01:04:28;;;;;;;1.40;1.30;;;;;;;21.82;53.53;95507.19;5045664;28;20194;-81
2022/06/21 01:06:58;;;;;;;1.50;1.30;;;;;;;21.78;53.65;95513.97;5045148;28;20340;-82
2022/06/21 01:09:34;;;;;;;1.67;1.40;;;;;;;21.63;54.05;95517.25;5045859;28;20203;-81
2022/06/21 01:12:07;;;;;;;1.75;1.02;;;;;;;21.69;53.92;95516.25;5044365;28;20202;-82
2022/06/21 01:14:37;;;;;;;1.42;1.30;;;;;;;21.70;53.84;95523.09;5046885;28;20222;-82
2022/06/21 01:17:06;;;;;;;1.80;1.30;;;;;;;21.81;53.19;95519.50;5045926;28;20206;-80
2022/06/21 01:19:39;;;;;;;2.13;1.10;;;;;;;21.68;52.93;95520.72;5045285;28;20229;-80
2022/06/21 01:22:23;;;;;;;2.35;1.20;;;;;;;21.57;52.36;95519.00;5044662;28;20740;-81
2022/06/21 01:25:03;;;;;;;1.35;1.23;;;;;;;21.42;52.27;95518.06;5047117;28;20230;-83
2022/06/21 01:27:31;;;;;;;2.33;1.30;;;;;;;21.21;52.32;95517.03;5044940;28;20232;-81
2022/06/21 01:29:58;;;;;;;2.35;1.05;;;;;;;21.23;52.31;95517.59;5044675;28;20521;-81
2022/06/21 01:32:25;;;;;;;1.60;1.10;;;;;;;21.25;52.56;95521.56;5042860;28;20230;-81
2022/06/21 01:34:51;;;;;;;1.85;1.15;;;;;;;21.16;52.70;95515.16;5044671;28;20206;-81
2022/06/21 01:37:22;;;;;;;2.67;1.92;;;;;;;21.10;52.56;95516.13;5044931;28;20206;-82
2022/06/21 01:39:55;;;;;;;1.85;0.95;;;;;;;21.14;52.79;95519.84;5045280;28;20230;-81
2022/06/21 01:42:28;;;;;;;1.08;0.98;;;;;;;21.14;52.02;95508.56;5042900;28;20221;-80
2022/06/21 01:45:00;;;;;;;2.00;1.10;;;;;;;21.20;50.99;95508.41;5044622;28;20265;-82
2022/06/21 01:47:35;;;;;;;1.30;1.10;;;;;;;21.20;49.37;95508.41;5044477;28;20198;-81
2022/06/21 01:50:06;;;;;;;1.52;1.10;;;;;;;21.15;49.45;95515.38;5043960;28;20344;-79
2022/06/21 01:52:36;;;;;;;2.13;1.02;;;;;;;20.96;49.61;95510.47;5044078;28;20280;-84
2022/06/21 01:55:05;;;;;;;1.83;0.90;;;;;;;20.98;49.55;95504.94;5044763;28;20228;-80
2022/06/21 01:57:32;;;;;;;2.55;1.02;;;;;;;21.08;48.93;95501.69;5043287;28;20202;-81
2022/06/21 02:00:03;;;;;;;3.30;1.10;;;;;;;20.96;48.58;95502.59;5044053;28;20214;-81
2022/06/21 02:02:33;;;;;;;1.35;0.90;;;;;;;20.92;48.98;95506.75;5072907;23;20278;-84
2022/06/21 02:05:03;;;;;;;1.10;1.00;;;;;;;20.98;49.30;95494.47;5034473;28;20206;-84
2022/06/21 02:07:34;;;;;;;1.27;1.02;;;;;;;21.04;49.20;95491.69;5034791;28;20229;-85
2022/06/21 02:10:08;;;;;;;1.05;1.00;;;;;;;21.01;49.20;95491.38;5034631;28;20217;-84
2022/06/21 02:12:36;;;;;;;3.13;1.20;;;;;;;20.96;49.41;95488.72;5033993;28;20226;-84
2022/06/21 02:15:08;;;;;;;1.15;1.00;;;;;;;20.94;49.95;95482.94;5034584;28;20202;-83
2022/06/21 02:17:41;;;;;;;2.67;1.00;;;;;;;21.02;49.74;95488.53;5033863;28;20194;-84
2022/06/21 02:20:13;;;;;;;1.00;1.00;;;;;;;20.79;50.06;95486.13;5033881;28;20265;-84
2022/06/21 02:22:41;;;;;;;2.65;1.00;;;;;;;20.63;49.43;95482.53;5033487;28;20693;-84
2022/06/21 02:25:14;;;;;;;1.15;1.00;;;;;;;20.52;47.91;95480.81;5034553;28;20260;-84
2022/06/21 02:27:41;;;;;;;0.80;0.80;;;;;;;20.60;48.44;95482.22;5034185;28;20202;-84
2022/06/21 02:30:16;;;;;;;2.10;1.23;;;;;;;20.40;46.76;95480.13;5032965;28;20202;-84
2022/06/21 02:32:43;;;;;;;1.27;0.80;;;;;;;20.30;47.18;95480.75;5033721;28;20229;-84
2022/06/21 02:35:19;;;;;;;1.38;0.90;;;;;;;20.33;47.04;95475.03;5034396;28;20293;-84
2022/06/21 02:37:48;;;;;;;1.50;0.80;;;;;;;20.19;47.02;95471.19;5034301;28;20252;-84
2022/06/21 02:40:19;;;;;;;3.30;0.90;;;;;;;20.33;46.56;95474.25;5033123;28;20206;-84
2022/06/21 02:42:47;;;;;;;1.33;1.00;;;;;;;20.28;46.53;95471.56;5032622;28;20233;-85
2022/06/21 02:45:24;;;;;;;2.67;0.85;;;;;;;20.15;46.90;95472.69;5034091;28;20198;-84
2022/06/21 02:47:52;;;;;;;1.00;0.90;;;;;;;20.04;46.85;95476.16;5034216;28;20201;-84
2022/06/21 02:50:32;;;;;;;1.77;0.75;;;;;;;19.93;47.14;95471.81;5032621;28;20205;-84
2022/06/21 02:53:01;;;;;;;2.75;0.70;;;;;;;19.97;47.98;95468.50;5032932;28;20229;-84
2022/06/21 02:55:38;;;;;;;1.65;0.90;;;;;;;19.95;47.78;95467.16;5033623;28;20657;-84
2022/06/21 02:58:12;;;;;;;1.35;0.90;;;;;;;20.07;48.11;95465.22;5033387;28;20198;-84
2022/06/21 03:00:42;;;;;;;0.93;0.80;;;;;;;20.10;47.90;95469.97;5033067;28;20253;-84
2022/06/21 03:03:16;;;;;;;1.15;0.80;;;;;;;20.05;47.98;95477.75;5032154;28;20238;-84
2022/06/21 03:05:43;;;;;;;0.90;0.90;;;;;;;20.24;47.69;95479.06;5033387;28;20210;-84
2022/06/21 03:08:09;;;;;;;1.70;0.80;;;;;;;20.34;47.20;95474.00;5032920;28;20198;-83
2022/06/21 03:10:39;;;;;;;0.98;0.88;;;;;;;20.05;47.73;95479.56;5032569;28;20228;-83
2022/06/21 03:13:10;;;;;;;1.10;1.00;;;;;;;20.14;47.74;95478.16;5032387;28;20238;-84
2022/06/21 03:15:42;;;;;;;2.97;0.90;;;;;;;20.13;47.33;95493.03;5033109;28;20210;-85
2022/06/21 03:18:12;;;;;;;1.15;0.93;;;;;;;20.15;47.49;95492.81;5032603;28;20292;-84
2022/06/21 03:20:40;;;;;;;1.70;1.00;;;;;;;20.10;46.99;95496.13;5032693;28;20653;-84
2022/06/21 03:23:07;;;;;;;1.27;0.90;;;;;;;19.88;47.02;95492.63;5032640;28;20234;-84
2022/06/21 03:25:39;;;;;;;2.80;0.90;;;;;;;19.75;46.77;95496.34;5032900;28;20736;-84
2022/06/21 03:28:22;;;;;;;2.70;1.17;;;;;;;19.72;46.96;95496.03;5033420;28;20198;-84
2022/06/21 03:30:53;;;;;;;1.80;1.02;;;;;;;19.62;47.76;95491.44;5032621;28;20202;-84
2022/06/21 03:33:20;;;;;;;1.42;0.90;;;;;;;19.82;47.56;95496.22;5032661;28;20229;-84
2022/06/21 03:35:47;;;;;;;1.13;0.95;;;;;;;19.97;47.06;95499.84;5032958;28;20210;-85
2022/06/21 03:38:14;;;;;;;1.00;0.90;;;;;;;19.86;47.35;95495.47;5033302;28;20206;-84
2022/06/21 03:43:30;;;;;;;1.80;0.90;;;;;;;19.90;47.22;95498.41;5031730;28;20240;-84
2022/06/21 03:46:02;;;;;;;0.90;0.80;;;;;;;19.94;46.83;95495.09;5032292;28;20714;-83
2022/06/21 03:48:34;;;;;;;2.83;1.08;;;;;;;19.92;47.41;95496.34;5032586;28;20276;-84
2022/06/21 03:51:07;;;;;;;2.05;0.82;;;;;;;19.86;47.83;95489.44;5031341;28;20649;-84
2022/06/21 03:53:36;;;;;;;1.10;1.00;;;;;;;20.09;47.46;95493.75;5031983;28;20233;-85
2022/06/21 03:56:09;;;;;;;1.50;0.82;;;;;;;20.33;46.56;95497.78;5033003;28;20253;-84
2022/06/21 03:58:47;;;;;;;0.90;0.90;;;;;;;20.40;46.44;95493.19;5032762;28;20264;-84
2022/06/21 04:01:21;;;;;;;0.90;0.90;;;;;;;20.28;47.12;95500.31;5031099;28;20222;-83
2022/06/21 04:03:53;;;;;;;0.95;0.90;;;;;;;20.17;47.27;95498.59;5031420;28;20221;-84
2022/06/21 04:06:25;;;;;;;2.05;1.10;;;;;;;20.19;47.26;95499.16;5037286;28;20229;-84
2022/06/21 04:09:01;;;;;;;2.72;0.93;;;;;;;20.10;47.30;95492.72;5037836;28;20209;-83
2022/06/21 04:11:37;;;;;;;1.02;1.00;;;;;;;20.14;47.47;95496.44;5037148;28;20214;-84
2022/06/21 04:14:11;;;;;;;2.85;1.15;;;;;;;20.13;47.71;95500.09;5038650;28;20229;-84
2022/06/21 04:16:45;;;;;;;2.78;1.13;;;;;;;19.92;47.78;95496.34;5040547;28;20233;-85
2022/06/21 04:19:19;;;;;;;1.35;0.95;;;;;;;19.61;48.30;95493.25;5041084;28;20206;-84
2022/06/21 04:21:52;;;;;;;1.80;1.00;;;;;;;19.52;48.39;95494.63;5042725;28;20368;-85
2022/06/21 04:24:26;;;;;;;2.85;1.27;;;;;;;19.64;53.91;95489.34;5041793;28;20233;-86
2022/06/21 04:27:00;;;;;;;1.27;1.02;;;;;;;20.24;56.99;95483.50;5038868;28;20268;-83
2022/06/21 04:29:32;;;;;;;3.53;1.30;;;;;;;20.76;52.70;95491.09;5035410;28;20201;-83
2022/06/21 04:32:05;;;;;;;1.40;1.30;;;;;;;21.02;48.31;95482.50;5035026;28;20278;-83
2022/06/21 04:34:36;;;;;;;1.42;0.90;;;;;;;20.92;47.15;95479.78;5036618;28;20202;-83
2022/06/21 04:37:08;;;;;;;2.55;1.13;;;;;;;20.74;46.15;95475.63;5038012;28;20226;-82
2022/06/21 04:39:40;;;;;;;4.57;1.20;;;;;;;20.71;46.91;95483.97;5036593;28;20237;-83
2022/06/21 04:42:13;;;;;;;2.40;1.10;;;;;;;20.61;46.46;95478.56;5036118;28;20226;-84
2022/06/21 04:44:46;;;;;;;2.58;1.27;;;;;;;20.49;46.84;95476.06;5037017;28;20217;-84
2022/06/21 04:47:20;;;;;;;1.33;1.02;;;;;;;20.55;46.81;95479.56;5036931;28;20202;-83
2022/06/21 04:49:51;;;;;;;1.08;0.90;;;;;;;20.63;46.99;95476.50;5037745;28;20205;-83
2022/06/21 04:52:24;;;;;;;2.40;1.50;;;;;;;20.63;45.44;95486.97;5034516;28;20233;-84
2022/06/21 04:54:54;;;;;;;1.52;1.20;;;;;;;20.45;45.98;95484.63;5037812;28;20611;-83
2022/06/21 04:57:24;;;;;;;1.45;1.30;;;;;;;20.39;44.99;95480.38;5035731;28;20268;-85
2022/06/21 04:59:53;;;;;;;2.45;1.40;;;;;;;20.33;45.88;95477.66;5037198;28;20194;-83
2022/06/21 05:02:24;;;;;;;3.72;1.20;;;;;;;20.18;45.14;95480.06;5015992;28;20234;-83
2022/06/21 05:04:55;;;;;;;3.60;2.05;;;;;;;20.09;44.27;95475.44;5031340;28;20256;-84
2022/06/21 05:07:27;;;;;;;4.18;2.25;;;;;;;20.16;44.76;95482.13;5035886;28;20198;-83
2022/06/21 05:09:56;;;;;;;1.80;1.63;;;;;;;20.13;44.88;95487.81;5037905;28;20354;-83
2022/06/21 05:12:26;;;;;;;2.70;1.40;;;;;;;20.13;45.49;95487.81;5034968;28;20230;-83
2022/06/21 05:14:57;;;;;;;2.10;1.27;;;;;;;20.11;46.69;95486.47;5039174;28;20264;-84
2022/06/21 05:17:26;;;;;;;5.10;4.32;;;;;;;20.18;44.73;95480.06;5040084;28;20237;-84
2022/06/21 05:19:57;;;;;;;12.65;9.70;;;;;;;20.38;45.02;95476.97;5044876;28;20362;-84
2022/06/21 05:22:28;;;;;;;6.75;6.15;;;;;;;20.52;44.72;95472.97;5038358;28;20644;-84
2022/06/21 05:24:55;;;;;;;3.20;2.40;;;;;;;20.49;44.33;95476.06;5036386;28;20203;-83
2022/06/21 05:27:28;;;;;;;2.90;1.58;;;;;;;20.30;44.57;95472.91;5037570;28;20206;-84
2022/06/21 05:30:03;;;;;;;1.90;1.63;;;;;;;20.01;44.68;95471.44;5038877;28;20206;-83
2022/06/21 05:32:35;;;;;;;1.40;1.30;;;;;;;19.75;45.58;95472.03;5036144;28;20230;-84
2022/06/21 05:35:08;;;;;;;1.50;1.08;;;;;;;19.52;46.54;95478.97;5036582;28;20202;-84
2022/06/21 05:37:37;;;;;;;2.35;1.75;;;;;;;19.47;46.84;95472.81;5037215;28;20218;-83
2022/06/21 05:40:15;;;;;;;1.80;1.20;;;;;;;19.45;48.44;95475.66;5036642;28;20205;-83
2022/06/21 05:42:42;;;;;;;1.83;1.17;;;;;;;19.28;46.95;95472.22;5036186;28;20661;-83
2022/06/21 05:45:14;;;;;;;2.20;1.50;;;;;;;19.25;47.16;95472.69;5035941;28;20198;-83
2022/06/21 05:47:44;;;;;;;2.72;1.20;;;;;;;19.47;47.31;95475.44;5035019;28;20198;-87
2022/06/21 05:50:16;;;;;;;1.42;1.30;;;;;;;19.96;48.59;95474.75;5032614;28;20232;-87
2022/06/21 05:52:48;;;;;;;3.40;1.30;;;;;;;20.01;46.38;95466.19;5032550;28;20234;-86
2022/06/21 05:55:19;;;;;;;3.30;1.48;;;;;;;20.12;47.82;95464.53;5032676;28;20853;-86
2022/06/21 05:57:50;;;;;;;1.83;1.40;;;;;;;20.12;46.34;95473.16;5033033;28;20206;-86
2022/06/21 06:00:29;;;;;;;1.70;1.27;;;;;;;20.38;46.79;95484.03;5033328;28;20206;-87
2022/06/21 06:03:01;;;;;;;2.65;1.10;;;;;;;20.40;47.13;95481.97;5034696;28;20222;-85
2022/06/21 06:05:31;;;;;;;1.00;1.00;;;;;;;20.45;46.62;95482.81;5032995;28;20490;-87
2022/06/21 06:08:10;;;;;;;2.33;1.20;;;;;;;20.56;46.29;95481.94;5033641;28;20198;-86
2022/06/21 06:10:39;;;;;;;3.10;1.30;;;;;;;20.51;45.98;95476.63;5032535;28;20554;-87
2022/06/21 06:13:12;;;;;;;5.82;5.20;;;;;;;20.35;45.08;95478.22;5031121;28;20234;-87
2022/06/21 06:15:43;;;;;;;3.95;2.13;;;;;;;20.52;46.50;95478.22;5036314;28;20337;-86
2022/06/21 06:18:17;;;;;;;3.95;2.35;;;;;;;20.57;46.33;95480.09;5033316;28;20202;-87
2022/06/21 06:20:50;;;;;;;3.63;2.03;;;;;;;20.62;45.42;95470.47;5032429;28;20201;-87
2022/06/21 06:23:24;;;;;;;4.40;2.67;;;;;;;20.72;45.72;95469.03;5032048;28;20891;-87
2022/06/21 06:25:55;;;;;;;3.13;1.52;;;;;;;20.72;45.92;95467.22;5032937;28;20293;-85
2022/06/21 06:28:27;;;;;;;2.78;1.40;;;;;;;20.73;43.74;95474.03;5033438;28;20202;-86
2022/06/21 06:31:04;;;;;;;3.92;1.30;;;;;;;20.58;44.29;95479.88;5031741;28;20578;-86
2022/06/21 06:33:37;;;;;;;1.77;1.25;;;;;;;20.64;45.27;95471.03;5030875;28;20234;-87
2022/06/21 06:36:08;;;;;;;3.75;1.50;;;;;;;20.55;44.61;95467.28;5030582;28;20207;-87
2022/06/21 06:38:35;;;;;;;2.38;1.40;;;;;;;20.76;44.81;95476.19;5031468;28;20208;-87
2022/06/21 06:41:10;;;;;;;1.30;1.20;;;;;;;20.71;43.33;95486.56;5030353;28;20199;-87
2022/06/21 06:43:42;;;;;;;2.60;1.30;;;;;;;20.55;44.12;95476.94;5030946;28;20237;-87
2022/06/21 06:46:16;;;;;;;3.97;1.20;;;;;;;20.60;45.45;95479.59;5031748;28;20209;-87
2022/06/21 06:48:46;;;;;;;2.28;1.30;;;;;;;20.49;44.00;95478.69;5032713;28;20403;-87
2022/06/21 06:51:52;;;;;;;2.60;1.30;;;;;;;20.60;43.83;95479.59;5032212;28;20226;-86
2022/06/21 06:54:25;;;;;;;1.40;1.00;;;;;;;20.64;44.25;95468.41;5030521;28;20217;-88
2022/06/21 06:57:13;;;;;;;4.75;1.30;;;;;;;20.62;43.36;95469.69;5029975;28;20205;-87
2022/06/21 06:59:41;;;;;;;2.50;1.35;;;;;;;20.66;44.13;95474.22;5030571;28;20256;-86
2022/06/21 07:02:27;;;;;;;2.17;1.40;;;;;;;20.46;43.19;95466.09;5029037;28;20226;-87
2022/06/21 07:05:03;;;;;;;3.67;1.50;;;;;;;20.62;43.35;95467.06;5030648;28;20196;-86
2022/06/21 07:07:38;;;;;;;1.63;1.30;;;;;;;20.56;42.85;95466.25;5033658;28;20225;-82
2022/06/21 07:10:11;;;;;;;2.60;1.50;;;;;;;20.29;43.28;95467.91;5035060;28;20205;-84
2022/06/21 07:12:38;;;;;;;4.20;1.23;;;;;;;20.43;44.25;95478.84;5034694;28;20238;-84
2022/06/21 07:15:05;;;;;;;3.17;1.45;;;;;;;20.41;43.68;95481.69;5034680;28;20296;-84
2022/06/21 07:17:39;;;;;;;3.65;1.30;;;;;;;20.52;43.46;95475.59;5034307;28;20213;-84
2022/06/21 07:20:14;;;;;;;4.15;1.40;;;;;;;20.56;44.89;95478.53;5033325;28;20202;-83
2022/06/21 07:22:40;;;;;;;33.78;30.20;;;;;;;20.54;44.63;95484.00;5034548;28;20954;-85
2022/06/21 07:25:17;;;;;;;25.60;23.02;;;;;;;20.58;43.98;95485.09;5035115;28;20206;-84
2022/06/21 07:27:49;;;;;;;4.40;1.70;;;;;;;20.54;43.96;95488.44;5034409;28;20201;-84
2022/06/21 07:30:16;;;;;;;3.33;1.48;;;;;;;20.42;43.49;95488.50;5034379;28;20206;-84
2022/06/21 07:32:48;;;;;;;3.38;1.50;;;;;;;20.57;43.75;95480.09;5033922;28;20245;-84
2022/06/21 07:35:19;;;;;;;4.82;1.40;;;;;;;20.48;44.17;95482.34;5034482;28;20652;-84
2022/06/21 07:37:52;;;;;;;4.65;1.50;;;;;;;20.55;43.25;95485.59;5036486;28;20256;-84
2022/06/21 07:40:26;;;;;;;2.30;1.45;;;;;;;20.43;43.15;95481.47;5033494;28;20202;-83
2022/06/21 07:42:59;;;;;;;3.03;1.50;;;;;;;20.51;43.72;95476.63;5035250;28;20229;-84
2022/06/21 07:45:31;;;;;;;2.60;1.50;;;;;;;20.51;42.73;95471.41;5036906;28;20210;-83
2022/06/21 07:48:05;;;;;;;7.00;1.80;;;;;;;20.64;43.70;95471.03;5036478;28;20202;-84
2022/06/21 07:50:38;;;;;;;1.80;1.40;;;;;;;20.97;43.47;95470.13;5035395;28;20213;-84
2022/06/21 07:53:09;;;;;;;8.00;2.40;;;;;;;21.13;43.04;95465.88;5036088;28;20229;-84
2022/06/21 07:55:40;;;;;;;10.27;1.85;;;;;;;21.20;43.07;95466.50;5040747;28;20201;-84
2022/06/21 07:58:11;;;;;;;7.97;2.00;;;;;;;21.33;42.80;95471.38;5040800;28;20229;-83
2022/06/21 08:09:13;;;;;;;5.32;1.88;;;;;;;21.59;43.36;95467.16;5038512;28;20691;-84
2022/06/21 08:11:42;;;;;;;3.78;1.55;;;;;;;21.58;42.54;95464.78;5039349;28;20229;-85
2022/06/21 08:14:10;;;;;;;5.32;2.22;;;;;;;21.41;43.20;95474.56;5043550;28;20229;-84
2022/06/21 08:16:44;;;;;;;4.03;2.15;;;;;;;21.36;44.32;95473.47;5042623;28;20212;-84
2022/06/21 08:19:15;;;;;;;2.95;1.70;;;;;;;21.42;43.50;95478.78;5039212;28;20297;-84
2022/06/21 08:21:54;;;;;;;4.13;1.80;;;;;;;21.45;43.59;95483.53;5038094;28;20272;-84
2022/06/21 08:24:25;;;;;;;3.80;1.90;;;;;;;21.48;43.81;95491.69;5018007;28;20617;-84
2022/06/21 08:27:01;;;;;;;3.85;1.70;;;;;;;21.65;45.12;95487.13;5018653;28;20203;-84
2022/06/21 08:29:33;;;;;;;5.07;1.90;;;;;;;22.03;44.62;95485.38;5018530;28;20861;-84
2022/06/21 08:32:03;;;;;;;3.47;1.77;;;;;;;22.14;43.36;95491.50;5017837;28;20231;-84
2022/06/21 08:34:39;;;;;;;5.63;1.73;;;;;;;22.15;43.16;95493.06;5037906;28;20272;-84
2022/06/21 08:37:12;;;;;;;2.03;1.77;;;;;;;22.17;42.91;95488.38;5038708;28;20206;-84
2022/06/21 08:39:46;;;;;;;2.55;1.80;;;;;;;22.49;43.69;95486.50;5038509;28;20206;-84
2022/06/21 08:42:44;;;;;;;8.90;2.90;;;;;;;22.74;43.75;95484.00;5033919;28;20253;-84
2022/06/21 08:45:41;;;;;;;5.20;2.30;;;;;;;22.69;42.74;95489.25;5011440;28;20210;-84
2022/06/21 08:48:56;;;;;;;4.07;1.83;;;;;;;22.57;41.04;95488.63;5001692;28;20211;-83
2022/06/21 08:51:51;;;;;;;6.93;3.92;;;;;;;22.45;42.83;95487.25;5017755;28;20246;-84
2022/06/21 08:54:31;;;;;;;3.80;2.13;;;;;;;22.38;42.53;95483.00;5037216;28;20226;-84
2022/06/21 08:57:06;;;;;;;5.72;2.45;;;;;;;22.57;42.88;95493.88;5037288;28;20248;-84
2022/06/21 08:59:42;;;;;;;2.40;2.15;;;;;;;22.99;43.54;95496.50;5036666;28;20252;-83
2022/06/21 09:02:19;;;;;;;4.22;2.10;;;;;;;23.33;41.97;95488.19;5032325;28;20242;-84
2022/06/21 09:04:58;;;;;;;5.18;2.03;;;;;;;23.25;42.57;95489.50;5015309;28;20821;-85
2022/06/21 09:07:54;;;;;;;2.13;1.92;;;;;;;23.34;43.59;95490.56;5016680;28;20253;-84
2022/06/21 09:10:52;;;;;;;3.88;2.17;;;;;;;23.47;42.88;95493.78;5016486;28;20211;-83
2022/06/21 09:13:35;;;;;;;3.13;2.10;;;;;;;23.55;43.47;95498.53;5015913;28;20257;-84
2022/06/21 09:16:10;;;;;;;6.22;3.38;;;;;;;23.69;44.12;95496.97;5016988;28;20249;-84
2022/06/21 09:18:51;;;;;;;5.72;2.55;;;;;;;23.34;43.28;95501.09;5016834;28;20213;-84
2022/06/21 09:21:27;;;;;;;4.43;2.22;;;;;;;23.33;42.89;95493.47;5015511;28;20222;-84
2022/06/21 09:24:00;;;;;;;3.95;2.80;;;;;;;23.22;43.21;95497.13;5016237;28;20304;-84
2022/06/21 09:26:42;;;;;;;4.97;2.60;;;;;;;23.14;43.67;95487.09;5017068;28;20664;-83
2022/06/21 09:29:22;;;;;;;3.67;2.45;;;;;;;23.03;44.77;95487.06;5017401;28;20268;-84
2022/06/21 09:32:03;;;;;;;3.67;2.47;;;;;;;23.19;45.14;95479.22;5015156;28;20710;-83
2022/06/21 09:34:43;;;;;;;3.65;2.65;;;;;;;23.24;44.87;95481.88;5036952;28;20724;-84
2022/06/21 09:37:25;;;;;;;3.60;2.17;;;;;;;23.39;44.67;95477.47;5035970;28;20205;-84
2022/06/21 09:39:59;;;;;;;5.47;2.38;;;;;;;23.29;44.61;95474.78;5037701;28;20206;-84
2022/06/21 09:42:31;;;;;;;4.35;2.50;;;;;;;23.25;44.34;95467.69;5035356;28;20230;-85
2022/06/21 09:45:10;;;;;;;5.78;3.08;;;;;;;23.25;45.09;95467.69;5037276;28;20285;-84
2022/06/21 09:47:48;;;;;;;9.93;3.08;;;;;;;23.25;45.26;95462.44;5037066;28;20202;-84
2022/06/21 09:50:21;;;;;;;5.70;2.60;;;;;;;23.27;45.54;95460.34;5026161;28;20551;-84
2022/06/21 09:52:56;;;;;;;6.63;2.75;;;;;;;23.15;45.97;95478.16;5035342;28;20276;-83
2022/06/21 09:55:34;;;;;;;4.93;2.70;;;;;;;23.13;46.06;95467.91;5036896;28;20263;-83
2022/06/21 09:58:11;;;;;;;4.68;2.78;;;;;;;23.11;47.20;95477.88;5035672;28;20206;-83
2022/06/21 10:00:43;;;;;;;6.30;2.85;;;;;;;23.08;47.40;95466.09;5039001;28;20206;-83
2022/06/21 10:03:36;;;;;;;5.30;2.60;;;;;;;23.23;47.13;95454.81;5035082;28;20442;-83
2022/06/21 10:06:08;;;;;;;4.25;2.60;;;;;;;23.27;46.76;95452.47;5036250;28;20198;-83
2022/06/21 10:08:57;;;;;;;3.30;2.65;;;;;;;23.40;46.86;95451.97;5042389;28;20214;-83
2022/06/21 10:11:32;;;;;;;6.65;2.95;;;;;;;23.58;46.01;95445.44;5034849;28;20222;-84
2022/06/21 10:14:21;;;;;;;8.27;3.40;;;;;;;23.95;45.87;95461.00;5017824;28;20226;-83
2022/06/21 10:17:11;;;;;;;15.77;3.92;;;;;;;23.91;46.16;95458.09;5015958;28;20206;-84
2022/06/21 10:19:54;;;;;;;5.78;2.45;;;;;;;23.90;46.12;95453.09;5016148;28;20199;-83
2022/06/21 10:22:31;;;;;;;6.13;2.90;;;;;;;23.98;45.96;95450.72;5017052;28;20292;-84
2022/06/21 10:25:14;;;;;;;6.22;2.80;;;;;;;24.50;45.37;95443.56;5018402;28;20211;-82
2022/06/21 10:27:59;;;;;;;3.75;2.65;;;;;;;24.69;44.97;95447.22;5018066;28;20249;-84
2022/06/21 10:30:43;;;;;;;3.42;2.70;;;;;;;24.67;44.56;95436.16;5020267;28;20237;-83
2022/06/21 10:33:26;;;;;;;3.83;2.90;;;;;;;24.52;45.04;95436.19;5019461;28;20227;-83
2022/06/21 10:36:17;;;;;;;5.75;3.28;;;;;;;24.65;44.38;95435.63;5019452;28;20198;-84
2022/06/21 10:39:02;;;;;;;6.65;2.85;;;;;;;24.87;44.27;95446.63;5020403;28;20214;-83
2022/06/21 10:41:39;;;;;;;7.07;3.17;;;;;;;25.01;44.00;95444.22;5020404;28;20253;-83
2022/06/21 10:44:25;;;;;;;10.40;3.40;;;;;;;25.23;44.30;95428.03;5018395;28;20242;-84
2022/06/21 10:46:59;;;;;;;9.50;3.05;;;;;;;25.29;44.39;95430.38;5016515;28;20265;-83
2022/06/21 10:49:41;;;;;;;7.22;3.17;;;;;;;25.27;43.89;95419.31;5017241;28;20211;-83
2022/06/21 10:52:40;;;;;;;7.65;3.40;;;;;;;25.55;43.48;95414.41;5018523;28;20223;-82
2022/06/21 10:55:18;;;;;;;5.00;3.10;;;;;;;25.62;43.04;95418.31;5017961;28;20218;-85
2022/06/21 10:57:54;;;;;;;5.65;3.03;;;;;;;25.85;43.64;95421.31;5019974;28;20202;-85
2022/06/21 11:03:46;;;;;;;5.97;3.70;;;;;;;25.87;42.02;95417.34;5015982;28;20233;-86
2022/06/21 11:06:25;;;;;;;6.97;3.15;;;;;;;26.00;42.34;95416.69;5017234;28;20214;-87
2022/06/21 11:09:02;;;;;;;5.03;3.05;;;;;;;26.12;42.70;95403.13;5016466;28;20697;-86
2022/06/21 11:11:38;;;;;;;6.88;3.25;;;;;;;26.04;42.26;95407.16;5016341;28;20230;-85
2022/06/21 11:14:15;;;;;;;3.60;3.30;;;;;;;26.03;42.43;95408.22;5017251;28;20909;-85
2022/06/21 11:16:52;;;;;;;16.48;14.70;;;;;;;26.33;42.07;95401.13;5017590;28;20248;-85
2022/06/21 11:19:29;;;;;;;15.90;13.27;;;;;;;26.40;41.51;95402.34;5016621;28;20268;-85
2022/06/21 11:22:06;;;;;;;5.68;4.13;;;;;;;26.64;41.96;95398.91;5016009;28;20250;-85
2022/06/21 11:24:44;;;;;;;4.72;2.92;;;;;;;26.79;42.03;95383.66;5018231;28;20226;-86
2022/06/21 11:27:16;;;;;;;5.22;3.25;;;;;;;26.99;41.09;95376.56;5017408;28;20305;-85
2022/06/21 11:29:53;;;;;;;4.32;3.33;;;;;;;27.02;41.29;95389.22;5022209;28;20194;-85
2022/06/21 11:32:28;;;;;;;10.88;3.20;;;;;;;26.94;41.42;95380.06;5022741;28;20229;-84
2022/06/21 11:35:06;;;;;;;3.13;2.65;;;;;;;27.14;41.45;95371.84;5024441;28;20205;-85
2022/06/21 11:37:56;;;;;;;2.90;2.65;;;;;;;27.24;40.72;95370.16;5022465;28;20265;-86
2022/06/21 11:40:36;;;;;;;3.90;3.50;;;;;;;27.32;39.72;95370.31;5023600;28;20210;-85
2022/06/21 11:43:03;;;;;;;5.13;3.00;;;;;;;27.33;41.11;95363.91;5024221;28;20284;-85
2022/06/21 11:45:47;;;;;;;5.75;3.17;;;;;;;27.26;40.43;95374.09;5023430;28;20199;-85
2022/06/21 11:48:40;;;;;;;5.50;3.40;;;;;;;27.36;40.49;95384.50;5022143;28;20206;-86
2022/06/21 11:51:25;;;;;;;4.72;3.55;;;;;;;27.33;40.41;95371.06;5023019;28;20198;-84
2022/06/21 11:54:01;;;;;;;4.80;3.30;;;;;;;27.49;40.57;95353.91;5002772;28;20289;-85
2022/06/21 11:56:44;;;;;;;6.57;3.45;;;;;;;27.25;40.88;95347.94;5007763;28;20278;-86
2022/06/21 11:59:18;;;;;;;8.15;3.72;;;;;;;27.16;40.74;95334.56;5008893;28;20726;-85
2022/06/21 12:01:51;;;;;;;5.95;3.50;;;;;;;27.16;40.69;95327.41;5008354;28;20227;-86
2022/06/21 12:04:29;;;;;;;5.07;3.65;;;;;;;27.35;41.53;95323.97;5019027;28;20231;-86
2022/06/21 12:07:07;;;;;;;3.78;3.47;;;;;;;27.32;41.19;95321.91;5039498;28;20790;-86
2022/06/21 12:09:40;;;;;;;6.93;3.30;;;;;;;27.22;41.47;95306.19;5047973;28;20202;-86
2022/06/21 12:12:21;;;;;;;4.45;3.97;;;;;;;27.20;41.76;95308.34;5047251;28;20214;-86
2022/06/21 12:15:02;;;;;;;5.15;3.83;;;;;;;27.37;41.86;95313.88;5050166;28;20608;-86
2022/06/21 12:17:43;;;;;;;5.43;4.45;;;;;;;27.60;41.47;95315.66;5050478;28;20206;-86
2022/06/21 12:20:22;;;;;;;3.90;3.50;;;;;;;27.62;41.73;95318.00;5048250;28;20202;-86
2022/06/21 12:22:56;;;;;;;6.43;3.72;;;;;;;27.64;41.60;95327.22;5047579;28;20233;-86